createdAt,value
2023-01-22T00:00:52.392Z,985.34
2023-01-22T00:01:52.383Z,985.36
2023-01-22T00:02:52.420Z,985.36
2023-01-22T00:03:52.429Z,985.35
2023-01-22T00:04:52.348Z,985.37
2023-01-22T00:05:52.335Z,985.30
2023-01-22T00:06:52.307Z,985.31
2023-01-22T00:07:52.298Z,985.29
2023-01-22T00:08:52.283Z,985.32
2023-01-22T00:09:52.276Z,985.33
2023-01-22T00:10:52.248Z,985.35
2023-01-22T00:11:52.296Z,985.30
2023-01-22T00:12:52.231Z,985.29
2023-01-22T00:13:52.214Z,985.30
2023-01-22T00:14:52.201Z,985.28
2023-01-22T00:15:52.240Z,985.36
2023-01-22T00:16:52.226Z,985.32
2023-01-22T00:17:52.162Z,985.29
2023-01-22T00:18:52.173Z,985.37
2023-01-22T00:19:59.722Z,985.39
2023-01-22T00:20:52.183Z,985.37
2023-01-22T00:21:52.151Z,985.37
2023-01-22T00:22:52.101Z,985.35
2023-01-22T00:23:52.098Z,985.36
2023-01-22T00:24:52.105Z,985.31
2023-01-22T00:25:52.079Z,985.35
2023-01-22T00:26:52.073Z,985.34
2023-01-22T00:27:52.054Z,985.27
2023-01-22T00:28:52.038Z,985.23
2023-01-22T00:29:52.042Z,985.28
2023-01-22T00:30:52.179Z,985.27
2023-01-22T00:31:52.130Z,985.34
2023-01-22T00:32:52.010Z,985.24
2023-01-22T00:33:51.982Z,985.23
2023-01-22T00:34:51.971Z,985.18
2023-01-22T00:35:51.972Z,985.21
2023-01-22T00:36:51.998Z,985.24
2023-01-22T00:37:51.912Z,985.20
2023-01-22T00:38:51.931Z,985.20
2023-01-22T00:39:51.916Z,985.13
2023-01-22T00:40:51.902Z,985.19
2023-01-22T00:41:51.917Z,985.16
2023-01-22T00:42:51.902Z,985.17
2023-01-22T00:43:52.979Z,985.21
2023-01-22T00:44:51.851Z,985.16
2023-01-22T00:45:51.840Z,985.19
2023-01-22T00:46:51.861Z,985.17
2023-01-22T00:47:51.804Z,985.21
2023-01-22T00:48:51.788Z,985.16
2023-01-22T00:49:51.779Z,985.13
2023-01-22T00:50:51.804Z,985.17
2023-01-22T00:51:51.787Z,985.23
2023-01-22T00:52:51.765Z,985.20
2023-01-22T00:53:51.744Z,985.21
2023-01-22T00:54:51.747Z,985.27
2023-01-22T00:55:51.724Z,985.27
2023-01-22T00:56:51.726Z,985.28
2023-01-22T00:57:51.689Z,985.29
2023-01-22T00:58:51.718Z,985.27
2023-01-22T00:59:51.660Z,985.28
2023-01-22T01:00:51.691Z,985.31
2023-01-22T01:01:51.652Z,985.34
2023-01-22T01:02:51.620Z,985.25
2023-01-22T01:03:51.618Z,985.32
2023-01-22T01:04:51.619Z,985.33
2023-01-22T01:05:51.552Z,985.31
2023-01-22T01:06:51.587Z,985.33
2023-01-22T01:07:51.568Z,985.27
2023-01-22T01:08:51.534Z,985.33
2023-01-22T01:09:51.524Z,985.24
2023-01-22T01:10:51.515Z,985.27
2023-01-22T01:11:51.512Z,985.32
2023-01-22T01:12:51.492Z,985.34
2023-01-22T01:13:51.484Z,985.32
2023-01-22T01:14:51.461Z,985.32
2023-01-22T01:15:51.471Z,985.40
2023-01-22T01:16:51.440Z,985.39
2023-01-22T01:17:51.461Z,985.39
2023-01-22T01:18:51.411Z,985.40
2023-01-22T01:19:51.425Z,985.43
2023-01-22T01:20:51.382Z,985.33
2023-01-22T01:21:51.383Z,985.38
2023-01-22T01:22:51.403Z,985.35
2023-01-22T01:23:51.351Z,985.36
2023-01-22T01:24:51.367Z,985.40
2023-01-22T01:25:51.315Z,985.43
2023-01-22T01:26:51.319Z,985.34
2023-01-22T01:27:51.324Z,985.35
2023-01-22T01:28:51.289Z,985.33
2023-01-22T01:29:51.306Z,985.32
2023-01-22T01:30:51.325Z,985.35
2023-01-22T01:31:51.265Z,985.30
2023-01-22T01:32:51.252Z,985.30
2023-01-22T01:33:51.225Z,985.31
2023-01-22T01:34:51.230Z,985.35
2023-01-22T01:35:51.222Z,985.35
2023-01-22T01:36:51.196Z,985.34
2023-01-22T01:37:51.181Z,985.38
2023-01-22T01:38:51.160Z,985.37
2023-01-22T01:39:51.155Z,985.32
2023-01-22T01:40:51.171Z,985.41
2023-01-22T01:41:51.122Z,985.35
2023-01-22T01:42:51.142Z,985.30
2023-01-22T01:43:51.103Z,985.39
2023-01-22T01:44:51.100Z,985.29
2023-01-22T01:45:51.100Z,985.28
2023-01-22T01:46:51.178Z,985.28
2023-01-22T01:47:51.090Z,985.33
2023-01-22T01:48:51.034Z,985.33
2023-01-22T01:49:51.025Z,985.37
2023-01-22T01:50:51.045Z,985.28
2023-01-22T01:51:51.007Z,985.34
2023-01-22T01:52:51.020Z,985.37
2023-01-22T01:53:50.992Z,985.43
2023-01-22T01:54:50.951Z,985.38
2023-01-22T01:55:50.952Z,985.38
2023-01-22T01:56:50.938Z,985.38
2023-01-22T01:57:50.931Z,985.33
2023-01-22T01:58:50.911Z,985.40
2023-01-22T01:59:50.901Z,985.39
2023-01-22T02:00:50.917Z,985.37
2023-01-22T02:01:50.933Z,985.43
2023-01-22T02:02:50.865Z,985.49
2023-01-22T02:03:50.861Z,985.52
2023-01-22T02:04:50.848Z,985.51
2023-01-22T02:05:50.822Z,985.49
2023-01-22T02:06:50.828Z,985.55
2023-01-22T02:07:50.802Z,985.48
2023-01-22T02:08:50.810Z,985.52
2023-01-22T02:09:50.795Z,985.50
2023-01-22T02:10:50.770Z,985.56
2023-01-22T02:11:50.757Z,985.56
2023-01-22T02:12:50.761Z,985.52
2023-01-22T02:13:51.488Z,985.56
2023-01-22T02:14:50.722Z,985.54
2023-01-22T02:15:50.704Z,985.54
2023-01-22T02:16:50.711Z,985.55
2023-01-22T02:17:50.682Z,985.54
2023-01-22T02:18:50.673Z,985.51
2023-01-22T02:19:50.645Z,985.52
2023-01-22T02:20:50.641Z,985.58
2023-01-22T02:21:50.645Z,985.56
2023-01-22T02:22:50.631Z,985.54
2023-01-22T02:23:50.615Z,985.57
2023-01-22T02:24:50.582Z,985.55
2023-01-22T02:25:50.567Z,985.52
2023-01-22T02:26:50.559Z,985.58
2023-01-22T02:27:50.542Z,985.59
2023-01-22T02:28:50.578Z,985.68
2023-01-22T02:29:50.520Z,985.63
2023-01-22T02:30:50.543Z,985.62
2023-01-22T02:31:50.562Z,985.64
2023-01-22T02:32:50.509Z,985.57
2023-01-22T02:33:50.515Z,985.63
2023-01-22T02:34:50.480Z,985.59
2023-01-22T02:35:50.438Z,985.60
2023-01-22T02:36:50.451Z,985.58
2023-01-22T02:37:50.431Z,985.62
2023-01-22T02:38:50.430Z,985.57
2023-01-22T02:39:50.410Z,985.60
2023-01-22T02:40:50.380Z,985.56
2023-01-22T02:41:50.374Z,985.58
2023-01-22T02:42:50.367Z,985.59
2023-01-22T02:43:50.377Z,985.61
2023-01-22T02:44:50.343Z,985.61
2023-01-22T02:45:50.397Z,985.60
2023-01-22T02:46:50.326Z,985.56
2023-01-22T02:47:50.303Z,985.57
2023-01-22T02:48:50.320Z,985.59
2023-01-22T02:49:50.283Z,985.58
2023-01-22T02:50:50.294Z,985.58
2023-01-22T02:51:50.250Z,985.56
2023-01-22T02:52:50.259Z,985.63
2023-01-22T02:53:50.231Z,985.57
2023-01-22T02:54:50.221Z,985.62
2023-01-22T02:55:50.210Z,985.62
2023-01-22T02:56:50.191Z,985.61
2023-01-22T02:57:50.159Z,985.58
2023-01-22T02:58:50.171Z,985.53
2023-01-22T02:59:50.184Z,985.60
2023-01-22T03:00:50.237Z,985.59
2023-01-22T03:01:50.167Z,985.64
2023-01-22T03:02:50.131Z,985.57
2023-01-22T03:03:50.142Z,985.57
2023-01-22T03:04:50.164Z,985.61
2023-01-22T03:05:50.107Z,985.59
2023-01-22T03:06:50.064Z,985.62
2023-01-22T03:07:50.041Z,985.60
2023-01-22T03:08:50.069Z,985.57
2023-01-22T03:09:50.063Z,985.64
2023-01-22T03:10:50.014Z,985.63
2023-01-22T03:11:50.009Z,985.61
2023-01-22T03:12:49.998Z,985.64
2023-01-22T03:13:49.974Z,985.60
2023-01-22T03:14:49.991Z,985.59
2023-01-22T03:15:49.943Z,985.59
2023-01-22T03:16:50.043Z,985.60
2023-01-22T03:17:49.938Z,985.64
2023-01-22T03:18:49.911Z,985.60
2023-01-22T03:19:49.922Z,985.58
2023-01-22T03:20:49.899Z,985.56
2023-01-22T03:21:49.882Z,985.60
2023-01-22T03:22:49.868Z,985.60
2023-01-22T03:23:49.850Z,985.60
2023-01-22T03:24:49.860Z,985.63
2023-01-22T03:25:49.821Z,985.64
2023-01-22T03:26:49.844Z,985.65
2023-01-22T03:27:49.804Z,985.71
2023-01-22T03:28:49.810Z,985.66
2023-01-22T03:29:49.794Z,985.68
2023-01-22T03:30:49.771Z,985.63
2023-01-22T03:31:49.818Z,985.67
2023-01-22T03:32:49.743Z,985.70
2023-01-22T03:33:49.734Z,985.67
2023-01-22T03:34:49.725Z,985.71
2023-01-22T03:35:49.710Z,985.71
2023-01-22T03:36:49.700Z,985.70
2023-01-22T03:37:49.671Z,985.70
2023-01-22T03:38:49.683Z,985.67
2023-01-22T03:39:49.692Z,985.64
2023-01-22T03:40:49.643Z,985.66
2023-01-22T03:41:49.622Z,985.68
2023-01-22T03:42:49.626Z,985.70
2023-01-22T03:43:49.593Z,985.71
2023-01-22T03:44:49.591Z,985.67
2023-01-22T03:45:49.621Z,985.68
2023-01-22T03:46:49.565Z,985.69
2023-01-22T03:47:49.546Z,985.67
2023-01-22T03:48:49.550Z,985.72
2023-01-22T03:49:49.539Z,985.69
2023-01-22T04:03:24.102Z,985.71
2023-01-22T04:04:24.071Z,985.71
2023-01-22T04:05:24.079Z,985.73
2023-01-22T04:06:24.048Z,985.74
2023-01-22T04:07:24.047Z,985.72
2023-01-22T04:08:24.029Z,985.74
2023-01-22T04:09:24.008Z,985.77
2023-01-22T04:10:24.010Z,985.80
2023-01-22T04:11:24.014Z,985.79
2023-01-22T04:12:23.979Z,985.78
2023-01-22T04:13:23.978Z,985.84
2023-01-22T04:14:23.961Z,985.83
2023-01-22T04:15:23.974Z,985.86
2023-01-22T04:16:23.946Z,985.90
2023-01-22T04:17:31.419Z,985.87
2023-01-22T04:18:23.887Z,985.89
2023-01-22T04:19:23.889Z,985.92
2023-01-22T04:20:23.877Z,985.89
2023-01-22T04:21:23.866Z,985.96
2023-01-22T04:22:23.843Z,985.93
2023-01-22T04:23:23.829Z,985.89
2023-01-22T04:24:23.829Z,985.95
2023-01-22T04:25:23.828Z,985.95
2023-01-22T04:26:23.784Z,985.93
2023-01-22T04:27:23.787Z,985.94
2023-01-22T04:28:23.786Z,985.98
2023-01-22T04:29:23.770Z,985.87
2023-01-22T04:30:23.916Z,985.96
2023-01-22T04:31:23.842Z,985.89
2023-01-22T04:32:23.716Z,985.96
2023-01-22T04:33:23.717Z,985.90
2023-01-22T04:34:23.733Z,985.91
2023-01-22T04:35:23.697Z,985.86
2023-01-22T04:36:23.655Z,985.96
2023-01-22T04:37:23.656Z,985.93
2023-01-22T04:38:23.645Z,985.93
2023-01-22T04:39:23.635Z,985.96
2023-01-22T04:40:23.629Z,985.93
2023-01-22T04:41:23.649Z,985.92
2023-01-22T04:42:23.588Z,985.91
2023-01-22T04:43:23.586Z,985.94
2023-01-22T04:44:23.567Z,985.91
2023-01-22T04:45:23.596Z,985.92
2023-01-22T04:46:23.585Z,985.92
2023-01-22T04:47:23.534Z,985.94
2023-01-22T04:48:23.527Z,985.96
2023-01-22T04:49:23.507Z,985.97
2023-01-22T04:50:23.547Z,985.98
2023-01-22T04:51:23.614Z,985.95
2023-01-22T04:52:23.490Z,986.00
2023-01-22T04:53:23.464Z,985.98
2023-01-22T04:54:23.468Z,985.96
2023-01-22T04:55:23.468Z,985.97
2023-01-22T04:56:23.430Z,985.95
2023-01-22T04:57:23.400Z,986.00
2023-01-22T04:58:23.387Z,986.01
2023-01-22T04:59:23.482Z,986.03
2023-01-22T05:00:23.387Z,986.06
2023-01-22T05:01:23.403Z,986.07
2023-01-22T05:02:23.396Z,986.04
2023-01-22T05:03:23.325Z,986.11
2023-01-22T05:04:23.310Z,986.08
2023-01-22T05:05:23.304Z,986.06
2023-01-22T05:06:23.320Z,986.16
2023-01-22T05:07:23.282Z,986.18
2023-01-22T05:08:23.256Z,986.13
2023-01-22T05:09:23.256Z,986.21
2023-01-22T05:10:23.234Z,986.19
2023-01-22T05:11:23.229Z,986.22
2023-01-22T05:12:23.217Z,986.20
2023-01-22T05:13:23.198Z,986.28
2023-01-22T05:14:23.213Z,986.22
2023-01-22T05:15:28.789Z,986.22
2023-01-22T05:16:24.186Z,986.28
2023-01-22T05:17:23.151Z,986.26
2023-01-22T05:18:23.119Z,986.28
2023-01-22T05:19:23.135Z,986.27
2023-01-22T05:20:23.114Z,986.25
2023-01-22T05:21:23.117Z,986.27
2023-01-22T05:22:23.103Z,986.22
2023-01-22T05:23:23.078Z,986.28
2023-01-22T05:24:23.067Z,986.31
2023-01-22T05:25:23.057Z,986.31
2023-01-22T05:26:23.047Z,986.34
2023-01-22T05:27:23.059Z,986.31
2023-01-22T05:28:23.007Z,986.31
2023-01-22T05:29:23.001Z,986.35
2023-01-22T05:30:23.007Z,986.35
2023-01-22T05:31:23.054Z,986.30
2023-01-22T05:32:22.969Z,986.27
2023-01-22T05:33:22.970Z,986.25
2023-01-22T05:34:22.941Z,986.30
2023-01-22T05:35:22.941Z,986.29
2023-01-22T05:36:22.946Z,986.27
2023-01-22T05:37:22.900Z,986.28
2023-01-22T05:38:22.890Z,986.34
2023-01-22T05:39:24.159Z,986.30
2023-01-22T05:40:22.884Z,986.31
2023-01-22T05:41:22.878Z,986.28
2023-01-22T05:42:22.842Z,986.32
2023-01-22T05:43:22.856Z,986.36
2023-01-22T05:44:22.818Z,986.32
2023-01-22T05:45:22.807Z,986.38
2023-01-22T05:46:22.836Z,986.39
2023-01-22T05:47:22.789Z,986.42
2023-01-22T05:48:22.763Z,986.35
2023-01-22T05:49:22.762Z,986.40
2023-01-22T05:50:22.764Z,986.43
2023-01-22T05:51:22.853Z,986.44
2023-01-22T05:52:22.734Z,986.41
2023-01-22T05:53:22.688Z,986.44
2023-01-22T05:54:22.682Z,986.43
2023-01-22T05:55:22.680Z,986.45
2023-01-22T05:56:22.668Z,986.40
2023-01-22T05:57:22.658Z,986.44
2023-01-22T05:58:22.628Z,986.46
2023-01-22T05:59:22.621Z,986.41
2023-01-22T06:00:22.641Z,986.43
2023-01-22T06:01:22.631Z,986.42
2023-01-22T06:02:22.582Z,986.49
2023-01-22T06:03:22.617Z,986.48
2023-01-22T06:04:22.549Z,986.48
2023-01-22T06:05:22.577Z,986.47
2023-01-22T06:06:22.559Z,986.48
2023-01-22T06:07:22.531Z,986.45
2023-01-22T06:08:22.525Z,986.45
2023-01-22T06:09:22.519Z,986.51
2023-01-22T06:10:22.478Z,986.53
2023-01-22T06:11:22.495Z,986.44
2023-01-22T06:12:22.465Z,986.48
2023-01-22T06:13:22.448Z,986.50
2023-01-22T06:14:22.466Z,986.51
2023-01-22T06:15:22.432Z,986.53
2023-01-22T06:16:22.405Z,986.53
2023-01-22T06:17:22.387Z,986.52
2023-01-22T06:18:22.387Z,986.56
2023-01-22T06:19:22.357Z,986.57
2023-01-22T06:20:22.357Z,986.60
2023-01-22T06:21:22.361Z,986.59
2023-01-22T06:22:22.316Z,986.55
2023-01-22T06:23:22.328Z,986.57
2023-01-22T06:24:22.331Z,986.62
2023-01-22T06:25:22.294Z,986.66
2023-01-22T06:26:22.377Z,986.63
2023-01-22T06:27:22.277Z,986.62
2023-01-22T06:28:22.248Z,986.62
2023-01-22T06:29:22.269Z,986.75
2023-01-22T06:30:22.228Z,986.69
2023-01-22T06:31:22.394Z,986.68
2023-01-22T06:32:22.273Z,986.70
2023-01-22T06:33:22.196Z,986.74
2023-01-22T06:34:22.189Z,986.76
2023-01-22T06:35:22.179Z,986.75
2023-01-22T06:36:22.323Z,986.75
2023-01-22T06:37:22.163Z,986.76
2023-01-22T06:38:22.116Z,986.79
2023-01-22T06:39:22.119Z,986.75
2023-01-22T06:40:22.110Z,986.78
2023-01-22T06:41:22.122Z,986.77
2023-01-22T06:42:22.092Z,986.77
2023-01-22T06:43:22.071Z,986.82
2023-01-22T06:44:22.042Z,986.77
2023-01-22T06:45:22.203Z,986.78
2023-01-22T06:46:22.067Z,986.85
2023-01-22T06:47:22.051Z,986.81
2023-01-22T06:48:22.027Z,986.81
2023-01-22T06:49:21.984Z,986.79
2023-01-22T06:50:21.990Z,986.89
2023-01-22T06:51:22.119Z,986.93
2023-01-22T06:52:22.056Z,986.81
2023-01-22T06:53:21.936Z,986.84
2023-01-22T06:54:22.029Z,986.84
2023-01-22T06:55:21.937Z,986.85
2023-01-22T06:56:22.037Z,986.88
2023-01-22T06:57:21.905Z,986.84
2023-01-22T06:58:21.861Z,986.94
2023-01-22T06:59:21.919Z,986.91
2023-01-22T07:00:21.879Z,986.90
2023-01-22T07:01:21.960Z,986.92
2023-01-22T07:02:21.819Z,986.94
2023-01-22T07:03:21.840Z,986.96
2023-01-22T07:04:21.824Z,986.97
2023-01-22T07:05:23.111Z,986.93
2023-01-22T07:06:21.780Z,986.95
2023-01-22T07:07:21.785Z,986.99
2023-01-22T07:08:21.741Z,986.95
2023-01-22T07:09:21.867Z,986.93
2023-01-22T07:10:21.736Z,986.89
2023-01-22T07:11:21.806Z,986.94
2023-01-22T07:12:21.707Z,986.97
2023-01-22T07:13:21.921Z,986.99
2023-01-22T07:14:35.906Z,986.99
2023-01-22T07:15:22.661Z,986.99
2023-01-22T07:16:21.664Z,987.00
2023-01-22T07:17:21.663Z,987.05
2023-01-22T07:18:21.691Z,987.08
2023-01-22T07:19:21.623Z,987.06
2023-01-22T07:20:21.599Z,987.05
2023-01-22T07:21:21.596Z,987.05
2023-01-22T07:22:21.592Z,987.09
2023-01-22T07:23:21.564Z,987.03
2023-01-22T07:24:21.585Z,987.07
2023-01-22T07:25:21.568Z,987.07
2023-01-22T07:26:21.538Z,987.16
2023-01-22T07:27:21.533Z,987.16
2023-01-22T07:28:21.565Z,987.16
2023-01-22T07:29:21.735Z,987.17
2023-01-22T07:30:21.534Z,987.14
2023-01-22T07:31:21.693Z,987.15
2023-01-22T07:32:21.814Z,987.19
2023-01-22T07:33:21.845Z,987.20
2023-01-22T07:34:21.494Z,987.18
2023-01-22T07:35:21.424Z,987.21
2023-01-22T07:36:21.750Z,987.28
2023-01-22T07:37:21.412Z,987.29
2023-01-22T07:38:22.020Z,987.24
2023-01-22T07:39:21.463Z,987.29
2023-01-22T07:40:21.342Z,987.24
2023-01-22T07:41:26.159Z,987.25
2023-01-22T07:42:22.343Z,987.24
2023-01-22T07:43:21.336Z,987.30
2023-01-22T07:44:21.496Z,987.30
2023-01-22T07:45:21.447Z,987.25
2023-01-22T07:46:21.457Z,987.26
2023-01-22T07:47:21.434Z,987.26
2023-01-22T07:48:21.612Z,987.30
2023-01-22T07:49:21.225Z,987.28
2023-01-22T07:50:21.234Z,987.25
2023-01-22T07:51:21.234Z,987.27
2023-01-22T07:52:21.240Z,987.32
2023-01-22T07:53:21.193Z,987.35
2023-01-22T07:54:21.319Z,987.36
2023-01-22T07:55:21.154Z,987.37
2023-01-22T07:56:21.131Z,987.35
2023-01-22T07:57:21.144Z,987.41
2023-01-22T07:58:21.134Z,987.44
2023-01-22T07:59:21.115Z,987.47
2023-01-22T08:00:21.293Z,987.46
2023-01-22T08:01:21.097Z,987.54
2023-01-22T08:02:21.099Z,987.51
2023-01-22T08:03:21.065Z,987.50
2023-01-22T08:04:21.062Z,987.54
2023-01-22T08:05:21.026Z,987.47
2023-01-22T08:06:21.014Z,987.48
2023-01-22T08:07:20.997Z,987.46
2023-01-22T08:08:21.017Z,987.49
2023-01-22T08:09:20.964Z,987.49
2023-01-22T08:10:21.258Z,987.48
2023-01-22T08:11:20.947Z,987.52
2023-01-22T08:12:20.940Z,987.52
2023-01-22T08:13:20.993Z,987.52
2023-01-22T08:14:20.990Z,987.52
2023-01-22T08:15:20.907Z,987.58
2023-01-22T08:16:20.963Z,987.53
2023-01-22T08:17:20.879Z,987.61
2023-01-22T08:18:22.937Z,987.65
2023-01-22T08:19:20.849Z,987.56
2023-01-22T08:20:21.138Z,987.57
2023-01-22T08:21:20.817Z,987.56
2023-01-22T08:22:20.807Z,987.60
2023-01-22T08:23:22.006Z,987.55
2023-01-22T08:24:20.795Z,987.62
2023-01-22T08:25:20.767Z,987.66
2023-01-22T08:26:20.767Z,987.58
2023-01-22T08:27:20.736Z,987.66
2023-01-22T08:28:20.755Z,987.67
2023-01-22T08:29:20.729Z,987.66
2023-01-22T08:30:20.924Z,987.71
2023-01-22T08:31:28.012Z,987.69
2023-01-22T08:32:21.776Z,987.65
2023-01-22T08:33:20.708Z,987.73
2023-01-22T08:34:20.805Z,987.70
2023-01-22T08:35:20.637Z,987.72
2023-01-22T08:36:20.644Z,987.76
2023-01-22T08:37:20.616Z,987.78
2023-01-22T08:38:20.629Z,987.78
2023-01-22T08:39:20.595Z,987.76
2023-01-22T08:40:20.754Z,987.82
2023-01-22T08:41:20.566Z,987.79
2023-01-22T08:42:20.548Z,987.86
2023-01-22T08:43:20.563Z,987.88
2023-01-22T08:44:20.535Z,987.84
2023-01-22T08:45:20.525Z,987.86
2023-01-22T08:46:20.514Z,987.89
2023-01-22T08:47:20.485Z,987.95
2023-01-22T08:48:20.475Z,987.92
2023-01-22T08:49:20.494Z,987.94
2023-01-22T08:50:20.869Z,987.94
2023-01-22T08:51:20.457Z,987.93
2023-01-22T08:52:20.435Z,987.89
2023-01-22T08:53:20.457Z,987.89
2023-01-22T08:54:20.427Z,987.91
2023-01-22T08:55:20.397Z,987.94
2023-01-22T08:56:20.391Z,987.93
2023-01-22T08:57:20.378Z,987.92
2023-01-22T08:58:20.361Z,987.98
2023-01-22T08:59:20.373Z,987.92
2023-01-22T09:00:20.334Z,987.92
2023-01-22T09:01:20.447Z,987.94
2023-01-22T09:02:20.341Z,987.95
2023-01-22T09:03:20.299Z,987.98
2023-01-22T09:04:20.295Z,987.98
2023-01-22T09:05:20.278Z,988.00
2023-01-22T09:06:20.257Z,988.01
2023-01-22T09:07:20.311Z,988.01
2023-01-22T09:08:20.233Z,988.07
2023-01-22T09:09:20.225Z,988.04
2023-01-22T09:10:21.947Z,988.00
2023-01-22T09:11:20.212Z,988.03
2023-01-22T09:12:20.177Z,988.06
2023-01-22T09:13:20.160Z,988.04
2023-01-22T09:14:20.195Z,988.06
2023-01-22T09:15:20.158Z,988.11
2023-01-22T09:16:20.197Z,988.05
2023-01-22T09:17:20.108Z,988.13
2023-01-22T09:18:20.122Z,988.08
2023-01-22T09:19:20.098Z,988.09
2023-01-22T09:20:20.553Z,988.10
2023-01-22T09:21:20.063Z,988.06
2023-01-22T09:22:20.060Z,988.10
2023-01-22T09:23:20.061Z,988.14
2023-01-22T09:24:20.047Z,988.13
2023-01-22T09:25:20.012Z,988.19
2023-01-22T09:26:20.018Z,988.22
2023-01-22T09:27:19.974Z,988.23
2023-01-22T09:28:19.979Z,988.21
2023-01-22T09:29:19.962Z,988.19
2023-01-22T09:30:20.527Z,988.13
2023-01-22T09:31:19.984Z,988.16
2023-01-22T09:32:19.938Z,988.28
2023-01-22T09:33:19.910Z,988.18
2023-01-22T09:34:19.928Z,988.22
2023-01-22T09:35:19.889Z,988.20
2023-01-22T09:36:19.885Z,988.22
2023-01-22T09:37:19.863Z,988.22
2023-01-22T09:38:19.854Z,988.22
2023-01-22T09:39:19.862Z,988.19
2023-01-22T09:40:19.975Z,988.26
2023-01-22T09:41:19.839Z,988.22
2023-01-22T09:42:19.810Z,988.27
2023-01-22T09:43:19.795Z,988.27
2023-01-22T09:44:19.802Z,988.21
2023-01-22T09:45:19.758Z,988.25
2023-01-22T09:46:19.797Z,988.29
2023-01-22T09:47:19.721Z,988.29
2023-01-22T10:03:47.855Z,988.36
2023-01-22T10:04:47.854Z,988.41
2023-01-22T10:05:47.824Z,988.38
2023-01-22T10:06:47.832Z,988.35
2023-01-22T10:07:47.765Z,988.31
2023-01-22T10:08:47.779Z,988.33
2023-01-22T10:09:47.794Z,988.31
2023-01-22T10:10:47.769Z,988.28
2023-01-22T10:11:47.740Z,988.26
2023-01-22T10:12:47.703Z,988.30
2023-01-22T10:13:47.722Z,988.24
2023-01-22T10:14:47.718Z,988.25
2023-01-22T10:15:47.675Z,988.20
2023-01-22T10:16:47.736Z,988.30
2023-01-22T10:17:47.677Z,988.24
2023-01-22T10:18:47.648Z,988.26
2023-01-22T10:19:47.677Z,988.30
2023-01-22T10:20:47.625Z,988.31
2023-01-22T10:21:47.594Z,988.35
2023-01-22T10:22:47.583Z,988.32
2023-01-22T10:23:47.594Z,988.32
2023-01-22T10:24:47.582Z,988.36
2023-01-22T10:25:47.562Z,988.31
2023-01-22T10:26:47.535Z,988.34
2023-01-22T10:27:47.524Z,988.37
2023-01-22T10:28:47.515Z,988.43
2023-01-22T10:29:47.493Z,988.40
2023-01-22T10:30:47.630Z,988.33
2023-01-22T10:31:47.633Z,988.31
2023-01-22T10:32:47.463Z,988.37
2023-01-22T10:33:47.457Z,988.33
2023-01-22T10:34:47.459Z,988.36
2023-01-22T10:35:47.436Z,988.35
2023-01-22T10:36:47.401Z,988.38
2023-01-22T10:37:47.397Z,988.37
2023-01-22T10:38:47.386Z,988.40
2023-01-22T10:39:47.354Z,988.41
2023-01-22T10:40:47.373Z,988.36
2023-01-22T10:41:47.344Z,988.44
2023-01-22T10:42:47.318Z,988.43
2023-01-22T10:43:47.361Z,988.41
2023-01-22T10:44:47.307Z,988.47
2023-01-22T10:45:47.353Z,988.44
2023-01-22T10:46:47.283Z,988.44
2023-01-22T10:47:47.245Z,988.39
2023-01-22T10:48:47.266Z,988.45
2023-01-22T10:49:47.257Z,988.45
2023-01-22T10:50:47.275Z,988.50
2023-01-22T10:51:47.195Z,988.51
2023-01-22T10:52:47.204Z,988.47
2023-01-22T10:53:47.187Z,988.50
2023-01-22T10:54:47.167Z,988.56
2023-01-22T10:55:47.176Z,988.46
2023-01-22T10:56:47.145Z,988.49
2023-01-22T10:57:47.123Z,988.51
2023-01-22T10:58:47.116Z,988.47
2023-01-22T10:59:47.130Z,988.50
2023-01-22T11:00:52.345Z,988.47
2023-01-22T11:01:48.118Z,988.49
2023-01-22T11:02:47.152Z,988.50
2023-01-22T11:03:47.083Z,988.55
2023-01-22T11:04:47.055Z,988.46
2023-01-22T11:05:47.034Z,988.48
2023-01-22T11:06:47.015Z,988.47
2023-01-22T11:07:46.994Z,988.49
2023-01-22T11:08:47.006Z,988.54
2023-01-22T11:09:46.965Z,988.50
2023-01-22T11:10:46.994Z,988.57
2023-01-22T11:11:46.956Z,988.52
2023-01-22T11:12:46.966Z,988.60
2023-01-22T11:13:46.934Z,988.52
2023-01-22T11:14:46.922Z,988.57
2023-01-22T11:15:46.927Z,988.56
2023-01-22T11:16:46.908Z,988.50
2023-01-22T11:17:46.907Z,988.56
2023-01-22T11:18:46.859Z,988.51
2023-01-22T11:19:46.844Z,988.52
2023-01-22T11:20:46.907Z,988.45
2023-01-22T11:21:46.866Z,988.54
2023-01-22T11:22:46.826Z,988.47
2023-01-22T11:23:46.809Z,988.45
2023-01-22T11:24:46.805Z,988.43
2023-01-22T11:25:46.778Z,988.51
2023-01-22T11:26:46.795Z,988.42
2023-01-22T11:27:46.742Z,988.40
2023-01-22T11:28:46.739Z,988.39
2023-01-22T11:29:46.714Z,988.38
2023-01-22T11:30:46.763Z,988.42
2023-01-22T11:31:46.723Z,988.37
2023-01-22T11:32:46.674Z,988.39
2023-01-22T11:33:46.669Z,988.45
2023-01-22T11:34:46.715Z,988.38
2023-01-22T11:35:46.885Z,988.41
2023-01-22T11:36:46.636Z,988.39
2023-01-22T11:37:46.624Z,988.39
2023-01-22T11:38:46.601Z,988.35
2023-01-22T11:39:46.614Z,988.36
2023-01-22T11:40:46.590Z,988.39
2023-01-22T11:41:46.565Z,988.34
2023-01-22T11:42:46.556Z,988.36
2023-01-22T11:43:46.536Z,988.33
2023-01-22T11:44:46.534Z,988.38
2023-01-22T11:45:46.515Z,988.28
2023-01-22T11:46:46.521Z,988.33
2023-01-22T11:47:46.532Z,988.34
2023-01-22T11:48:46.486Z,988.34
2023-01-22T11:49:46.467Z,988.27
2023-01-22T11:50:46.505Z,988.35
2023-01-22T11:51:46.478Z,988.29
2023-01-22T11:52:46.437Z,988.31
2023-01-22T11:53:46.415Z,988.24
2023-01-22T11:54:46.405Z,988.33
2023-01-22T11:55:46.396Z,988.30
2023-01-22T11:56:46.366Z,988.31
2023-01-22T11:57:46.383Z,988.34
2023-01-22T11:58:46.350Z,988.28
2023-01-22T11:59:46.348Z,988.31
2023-01-22T12:00:46.356Z,988.29
2023-01-22T12:01:46.315Z,988.27
2023-01-22T12:02:46.339Z,988.29
2023-01-22T12:03:46.327Z,988.27
2023-01-22T12:04:46.289Z,988.29
2023-01-22T12:05:46.276Z,988.30
2023-01-22T12:06:46.266Z,988.23
2023-01-22T12:07:46.243Z,988.22
2023-01-22T12:08:46.227Z,988.29
2023-01-22T12:09:46.200Z,988.26
2023-01-22T12:10:46.209Z,988.24
2023-01-22T12:11:46.195Z,988.25
2023-01-22T12:12:46.166Z,988.22
2023-01-22T12:13:46.155Z,988.27
2023-01-22T12:14:46.160Z,988.22
2023-01-22T12:15:46.193Z,988.26
2023-01-22T12:16:46.126Z,988.22
2023-01-22T12:17:46.123Z,988.25
2023-01-22T12:18:46.096Z,988.25
2023-01-22T12:19:46.085Z,988.26
2023-01-22T12:20:46.100Z,988.23
2023-01-22T12:21:46.085Z,988.26
2023-01-22T12:22:46.048Z,988.25
2023-01-22T12:23:46.039Z,988.24
2023-01-22T12:24:46.027Z,988.25
2023-01-22T12:25:46.037Z,988.24
2023-01-22T12:26:46.006Z,988.22
2023-01-22T12:27:45.990Z,988.24
2023-01-22T12:28:45.981Z,988.16
2023-01-22T12:29:45.965Z,988.20
2023-01-22T12:30:45.991Z,988.20
2023-01-22T12:31:46.007Z,988.21
2023-01-22T12:32:45.914Z,988.19
2023-01-22T12:33:45.931Z,988.13
2023-01-22T12:34:45.904Z,988.17
2023-01-22T12:35:45.905Z,988.19
2023-01-22T12:36:45.869Z,988.09
2023-01-22T12:37:45.857Z,988.17
2023-01-22T12:38:45.839Z,988.14
2023-01-22T12:39:45.859Z,988.20
2023-01-22T12:40:45.830Z,988.19
2023-01-22T12:41:45.807Z,988.16
2023-01-22T12:42:45.791Z,988.15
2023-01-22T12:43:45.788Z,988.12
2023-01-22T12:44:45.762Z,988.14
2023-01-22T12:45:45.767Z,988.15
2023-01-22T12:46:45.781Z,988.14
2023-01-22T12:47:45.720Z,988.12
2023-01-22T12:48:45.717Z,988.14
2023-01-22T12:49:45.831Z,988.16
2023-01-22T12:50:45.696Z,988.14
2023-01-22T12:51:45.669Z,988.07
2023-01-22T12:52:45.648Z,988.18
2023-01-22T12:53:45.647Z,988.10
2023-01-22T12:54:45.638Z,988.14
2023-01-22T12:55:45.649Z,988.17
2023-01-22T12:56:45.619Z,988.15